Time;durP1;ratioP1;P1;durP2;ratioP2;P2;SDS_P1;SDS_P2;PMS_P1;PMS_P2;Temp;Humidity;BMP_temperature;BMP_pressure;BME280_temperature;BME280_humidity;BME280_pressure;Samples;Min_cycle;Max_cycle;Signal;HPM_P1;HPM_P2
2022/06/18 00:01:18;;;;;;;3.67;1.50;;;;;;;23.84;55.11;99039.63;4842680;29;20201;-91
2022/06/18 00:03:44;;;;;;;5.17;1.70;;;;;;;23.84;55.17;99045.84;4843203;29;20273;-92
2022/06/18 00:06:11;;;;;;;3.47;1.90;;;;;;;23.79;54.65;99048.16;4826990;29;20608;-91
2022/06/18 00:08:39;;;;;;;2.67;1.63;;;;;;;23.69;55.02;99041.28;4843795;29;20189;-92
2022/06/18 00:13:50;;;;;;;4.63;2.07;;;;;;;23.77;54.85;99039.44;4843118;29;20245;-90
2022/06/18 00:16:19;;;;;;;3.17;1.80;;;;;;;23.80;54.94;99046.31;4842701;29;20232;-91
2022/06/18 00:18:45;;;;;;;4.80;2.10;;;;;;;23.78;53.80;99041.13;4826747;29;20189;-91
2022/06/18 00:21:17;;;;;;;2.97;1.90;;;;;;;23.77;53.69;99038.59;4843394;29;20188;-92
2022/06/18 00:23:43;;;;;;;3.73;1.60;;;;;;;23.82;53.68;99036.25;4826800;29;20193;-92
2022/06/18 00:26:10;;;;;;;2.73;1.80;;;;;;;23.91;53.90;99037.13;4826922;29;20196;-92
2022/06/18 00:28:35;;;;;;;5.30;1.50;;;;;;;24.02;53.55;99034.09;4826785;29;20181;-91
2022/06/18 00:31:01;;;;;;;5.67;1.77;;;;;;;23.98;54.37;99038.13;4842721;29;20193;-92
2022/06/18 00:33:28;;;;;;;2.80;1.63;;;;;;;24.01;54.50;99051.16;4826897;29;20223;-92
2022/06/18 00:35:58;;;;;;;2.90;1.50;;;;;;;24.10;53.98;99040.34;4842977;29;20181;-91
2022/06/18 00:38:30;;;;;;;2.80;1.70;;;;;;;23.92;55.74;99036.97;4842945;29;20272;-91
2022/06/18 00:40:59;;;;;;;5.00;1.70;;;;;;;23.96;55.18;99043.66;4842664;29;20185;-92
2022/06/18 00:43:39;;;;;;;7.17;1.87;;;;;;;24.04;55.28;99040.13;4826718;29;20189;-93
2022/06/18 00:46:14;;;;;;;3.07;1.83;;;;;;;23.91;55.95;99039.78;4826702;29;20192;-92
2022/06/18 00:48:53;;;;;;;3.17;1.83;;;;;;;24.03;55.35;99038.47;4842927;29;20666;-92
2022/06/18 00:51:24;;;;;;;5.77;2.50;;;;;;;24.08;55.25;99038.78;4842549;29;20507;-94
2022/06/18 00:54:08;;;;;;;4.00;2.20;;;;;;;24.16;54.91;99039.63;4826786;29;20683;-93
2022/06/18 00:56:44;;;;;;;3.27;1.60;;;;;;;24.15;54.64;99047.84;4842580;29;20165;-92
2022/06/18 00:59:34;;;;;;;2.93;1.50;;;;;;;24.20;53.47;99042.81;4826595;29;20185;-92
2022/06/18 01:02:01;;;;;;;3.43;1.80;;;;;;;24.25;53.28;99048.50;4826823;29;20292;-94
2022/06/18 01:04:35;;;;;;;4.10;1.40;;;;;;;24.24;53.48;99044.19;4826528;29;20640;-92
2022/06/18 01:07:26;;;;;;;2.40;1.30;;;;;;;24.19;53.65;99044.66;4826589;29;20215;-92
2022/06/18 01:09:52;;;;;;;3.30;1.50;;;;;;;24.25;53.26;99037.78;4826792;29;20265;-95
2022/06/18 01:12:18;;;;;;;7.13;1.20;;;;;;;24.24;53.32;99036.97;4830109;29;20257;-92
2022/06/18 01:14:46;;;;;;;4.00;1.80;;;;;;;24.27;53.20;99041.13;4829943;29;20224;-93
2022/06/18 01:17:11;;;;;;;2.67;1.50;;;;;;;24.31;52.76;99037.97;4829953;29;20193;-93
2022/06/18 01:19:44;;;;;;;3.33;1.40;;;;;;;24.27;53.14;99025.06;4829755;29;20546;-93
2022/06/18 01:22:43;;;;;;;2.63;1.60;;;;;;;24.23;52.83;99032.63;4829642;29;20211;-91
2022/06/18 01:25:09;;;;;;;3.03;1.40;;;;;;;24.18;53.36;99020.75;4846159;29;20193;-93
2022/06/18 01:27:35;;;;;;;2.97;1.57;;;;;;;24.21;53.28;99025.75;4829728;29;20189;-93
2022/06/18 01:30:10;;;;;;;6.20;2.07;;;;;;;24.16;53.19;99017.41;4830038;29;20204;-93
2022/06/18 01:32:37;;;;;;;3.07;1.60;;;;;;;24.15;53.58;99021.06;4829528;29;20204;-93
2022/06/18 01:35:07;;;;;;;2.83;1.57;;;;;;;24.18;53.92;99016.22;4829885;29;20193;-93
2022/06/18 01:37:35;;;;;;;3.17;1.80;;;;;;;24.21;54.29;99025.75;4829949;29;20640;-93
2022/06/18 01:40:02;;;;;;;8.57;2.23;;;;;;;24.19;54.38;99022.41;4829649;29;20197;-91
2022/06/18 01:42:35;;;;;;;3.03;1.60;;;;;;;24.24;54.57;99026.25;4829346;29;20189;-93
2022/06/18 01:45:08;;;;;;;3.93;1.60;;;;;;;24.26;54.44;99018.91;4845728;29;20201;-93
2022/06/18 01:47:45;;;;;;;2.90;1.57;;;;;;;24.30;54.55;99014.84;4829297;29;20197;-93
2022/06/18 01:50:23;;;;;;;4.50;2.30;;;;;;;24.38;54.47;99027.41;4829696;29;20185;-92
2022/06/18 01:52:55;;;;;;;10.07;2.30;;;;;;;24.35;55.24;99027.72;4829267;29;20615;-93
2022/06/18 01:55:29;;;;;;;5.10;1.80;;;;;;;24.34;55.88;99021.53;4845307;29;20183;-93
2022/06/18 01:58:00;;;;;;;3.60;1.97;;;;;;;24.29;56.86;99018.53;4845528;29;20207;-91
2022/06/18 02:00:28;;;;;;;3.43;2.17;;;;;;;24.27;57.65;99022.38;4844951;29;20614;-91
2022/06/18 02:02:54;;;;;;;4.43;1.83;;;;;;;24.23;58.06;99018.38;4845030;29;20177;-90
2022/06/18 02:05:21;;;;;;;3.17;2.07;;;;;;;24.16;60.14;99025.44;4845082;29;20211;-91
2022/06/18 02:07:48;;;;;;;3.43;2.23;;;;;;;24.03;60.62;99022.41;4828922;29;20209;-91
2022/06/18 02:10:20;;;;;;;7.00;2.47;;;;;;;23.93;62.14;99011.00;4829297;29;20196;-91
2022/06/18 02:12:47;;;;;;;3.97;2.23;;;;;;;23.75;63.18;99014.69;4828892;29;20249;-91
2022/06/18 02:15:29;;;;;;;3.87;2.33;;;;;;;23.76;62.71;99003.00;4828768;29;20189;-91
2022/06/18 02:18:03;;;;;;;5.77;2.13;;;;;;;23.90;62.86;98997.97;4828759;29;20268;-92
2022/06/18 02:20:31;;;;;;;3.67;2.50;;;;;;;23.91;63.12;98995.13;4845011;29;20597;-91
2022/06/18 02:22:57;;;;;;;4.23;1.97;;;;;;;23.93;62.83;98995.78;4828591;29;20192;-90
2022/06/18 02:25:28;;;;;;;5.20;2.37;;;;;;;23.95;62.59;98999.13;4828417;29;20735;-90
2022/06/18 02:28:12;;;;;;;4.97;2.73;;;;;;;23.89;62.91;98999.81;4844587;29;20193;-91
2022/06/18 02:30:38;;;;;;;4.17;2.00;;;;;;;23.91;62.89;99010.34;4844865;29;20173;-91
2022/06/18 02:33:10;;;;;;;4.63;2.23;;;;;;;23.87;63.40;99017.03;4844545;29;20542;-90
2022/06/18 02:35:36;;;;;;;4.43;2.30;;;;;;;23.80;63.04;99025.75;4844541;29;20178;-91
2022/06/18 02:38:12;;;;;;;3.73;1.73;;;;;;;23.80;63.44;99019.53;4844760;29;20211;-90
2022/06/18 02:40:38;;;;;;;5.83;2.93;;;;;;;23.82;62.99;99015.69;4844870;29;20169;-90
2022/06/18 02:43:03;;;;;;;6.17;2.50;;;;;;;23.73;63.25;99019.38;4844405;29;20191;-91
2022/06/18 02:45:31;;;;;;;4.97;2.63;;;;;;;23.73;63.58;99010.50;4844309;29;20565;-91
2022/06/18 02:47:59;;;;;;;3.87;2.60;;;;;;;23.75;63.97;99014.69;4828291;29;20189;-91
2022/06/18 02:50:28;;;;;;;4.50;2.50;;;;;;;23.76;63.71;99010.19;4828146;29;20185;-91
2022/06/18 02:53:00;;;;;;;4.93;3.03;;;;;;;23.75;63.68;99012.03;4828157;29;20197;-91
2022/06/18 02:55:33;;;;;;;5.43;2.50;;;;;;;23.75;63.63;99014.69;4844454;29;20161;-90
2022/06/18 02:58:08;;;;;;;4.30;2.30;;;;;;;23.79;63.31;99015.22;4844493;29;20177;-91
2022/06/18 03:00:37;;;;;;;3.97;2.57;;;;;;;23.76;62.93;99018.22;4827875;29;20264;-92
2022/06/18 03:03:06;;;;;;;4.80;2.60;;;;;;;23.71;61.84;99016.03;4828106;29;20181;-91
2022/06/18 03:05:32;;;;;;;6.37;1.97;;;;;;;23.71;60.96;99018.72;4843864;29;20235;-91
2022/06/18 03:07:58;;;;;;;3.10;1.73;;;;;;;23.64;60.90;99019.53;4843890;29;20185;-91
2022/06/18 03:13:08;;;;;;;5.63;2.53;;;;;;;23.57;61.30;99022.03;4844197;29;20208;-91
2022/06/18 03:15:34;;;;;;;7.00;2.73;;;;;;;23.56;61.39;99017.69;4843768;29;20173;-90
2022/06/18 03:18:00;;;;;;;4.40;2.63;;;;;;;23.56;61.70;99023.03;4843706;29;20185;-90
2022/06/18 03:20:36;;;;;;;6.80;2.47;;;;;;;23.58;62.21;99028.25;4843630;29;20202;-90
2022/06/18 03:23:02;;;;;;;4.57;3.17;;;;;;;23.57;62.29;99027.41;4827435;29;20194;-90
2022/06/18 03:25:27;;;;;;;7.40;3.33;;;;;;;23.58;62.58;99018.38;4827522;29;20213;-91
2022/06/18 03:27:53;;;;;;;4.70;2.80;;;;;;;23.57;62.92;99022.03;4843518;29;20193;-89
2022/06/18 03:30:19;;;;;;;5.10;3.23;;;;;;;23.58;63.32;99029.09;4827447;29;20184;-90
2022/06/18 03:32:44;;;;;;;7.90;3.40;;;;;;;23.63;62.66;99025.91;4843161;29;20659;-91
2022/06/18 03:35:09;;;;;;;5.43;3.17;;;;;;;23.64;62.74;99027.56;4827234;29;20185;-90
2022/06/18 03:37:35;;;;;;;4.80;2.67;;;;;;;23.65;62.74;99031.91;4827240;29;20185;-90
2022/06/18 03:40:00;;;;;;;4.57;2.80;;;;;;;23.63;62.75;99028.56;4827183;29;20635;-90
2022/06/18 03:42:26;;;;;;;5.57;2.53;;;;;;;23.64;63.22;99028.41;4843237;29;20212;-89
2022/06/18 03:44:51;;;;;;;6.07;2.70;;;;;;;23.70;63.34;99027.75;4842953;29;20216;-90
2022/06/18 03:47:17;;;;;;;5.73;3.33;;;;;;;23.76;63.28;99031.59;4843152;29;20200;-90
2022/06/18 03:49:43;;;;;;;6.13;3.50;;;;;;;23.79;63.44;99032.09;4843122;29;20214;-89
2022/06/18 03:52:10;;;;;;;4.97;2.83;;;;;;;23.82;63.26;99026.41;4843029;29;20298;-90
2022/06/18 03:54:36;;;;;;;4.80;2.80;;;;;;;23.88;63.36;99021.38;4843003;29;20185;-90
2022/06/18 03:57:02;;;;;;;6.23;3.13;;;;;;;23.95;63.20;99030.44;4843285;29;20185;-89
2022/06/18 03:59:27;;;;;;;4.87;3.23;;;;;;;23.95;63.43;99022.41;4826891;29;20226;-89
2022/06/18 04:01:53;;;;;;;5.63;3.50;;;;;;;24.02;63.72;99026.06;4842901;29;20236;-90
2022/06/18 04:04:18;;;;;;;4.07;2.80;;;;;;;24.06;63.83;99032.75;4826713;29;20205;-89
2022/06/18 04:06:44;;;;;;;5.97;3.40;;;;;;;24.11;63.45;99035.81;4826805;29;20181;-89
2022/06/18 04:09:10;;;;;;;5.67;3.63;;;;;;;24.11;63.64;99031.28;4842759;29;20189;-90
2022/06/18 04:11:36;;;;;;;5.57;3.53;;;;;;;24.11;63.76;99036.63;4843525;29;20183;-90
2022/06/18 04:14:03;;;;;;;5.87;3.07;;;;;;;24.13;63.74;99039.16;4842985;29;20181;-89
2022/06/18 04:16:29;;;;;;;6.03;3.37;;;;;;;24.19;63.42;99033.09;4842559;29;20181;-90
2022/06/18 04:18:55;;;;;;;5.50;3.30;;;;;;;24.20;63.60;99035.63;4826625;29;20220;-91
2022/06/18 04:21:21;;;;;;;5.67;3.67;;;;;;;24.24;63.57;99036.97;4826636;29;20655;-90
2022/06/18 04:23:47;;;;;;;6.90;3.40;;;;;;;24.30;63.76;99040.81;4842774;29;20205;-89
2022/06/18 04:26:12;;;;;;;5.37;3.53;;;;;;;24.33;63.68;99051.19;4842537;29;20276;-90
2022/06/18 04:28:38;;;;;;;5.30;3.13;;;;;;;24.38;64.07;99051.50;4842565;29;20268;-89
2022/06/18 04:31:05;;;;;;;6.37;3.57;;;;;;;24.44;63.48;99054.34;4826813;29;20615;-90
2022/06/18 04:33:31;;;;;;;5.73;3.37;;;;;;;24.44;63.57;99058.88;4842493;29;20185;-89
2022/06/18 04:35:58;;;;;;;6.97;3.40;;;;;;;24.47;63.36;99060.38;4842737;29;20221;-89
2022/06/18 04:38:25;;;;;;;5.57;3.20;;;;;;;24.40;63.83;99066.41;4842965;29;20192;-90
2022/06/18 04:40:51;;;;;;;7.13;3.67;;;;;;;24.42;64.30;99074.28;4826621;29;20558;-89
2022/06/18 04:43:16;;;;;;;8.50;3.87;;;;;;;24.45;64.31;99076.59;4842332;29;20188;-89
2022/06/18 04:45:42;;;;;;;7.23;3.20;;;;;;;24.49;64.56;99072.59;4844463;29;20280;-89
2022/06/18 04:48:07;;;;;;;6.63;3.50;;;;;;;24.51;64.19;99073.25;4829975;29;20181;-88
2022/06/18 04:50:36;;;;;;;5.53;3.50;;;;;;;24.54;63.81;99090.84;4846204;29;20181;-89
2022/06/18 04:53:03;;;;;;;6.60;3.77;;;;;;;24.58;63.04;99081.47;4846142;29;20189;-90
2022/06/18 04:55:28;;;;;;;5.93;3.10;;;;;;;24.54;63.59;99091.69;4829900;29;20699;-91
2022/06/18 04:57:54;;;;;;;9.93;3.60;;;;;;;24.54;63.29;99075.59;4846339;29;20282;-91
2022/06/18 05:00:19;;;;;;;6.00;4.00;;;;;;;24.60;63.51;99080.28;4845845;29;20195;-90
2022/06/18 05:02:45;;;;;;;12.93;3.90;;;;;;;24.57;63.62;99090.50;4846302;29;20169;-91
2022/06/18 05:05:20;;;;;;;5.33;3.70;;;;;;;24.54;64.03;99097.03;4829668;29;20212;-90
2022/06/18 05:07:46;;;;;;;5.97;3.80;;;;;;;24.58;63.81;99089.50;4845837;29;20202;-91
2022/06/18 05:10:12;;;;;;;6.50;2.97;;;;;;;24.68;63.81;99104.41;4845810;29;20185;-91
2022/06/18 05:12:39;;;;;;;6.13;3.27;;;;;;;24.66;64.07;99100.22;4845816;29;20324;-91
2022/06/18 05:15:09;;;;;;;5.70;3.20;;;;;;;24.66;64.47;99103.72;4829704;29;20276;-90
2022/06/18 05:17:36;;;;;;;5.20;3.50;;;;;;;24.74;63.79;99105.53;4829508;29;20256;-90
2022/06/18 05:20:04;;;;;;;7.43;3.90;;;;;;;24.77;63.41;99114.09;4845699;29;20189;-91
2022/06/18 05:22:30;;;;;;;7.27;3.93;;;;;;;24.79;63.29;99104.03;4846259;29;20177;-90
2022/06/18 05:24:56;;;;;;;5.83;3.47;;;;;;;24.84;63.59;99108.91;4845612;29;20211;-91
2022/06/18 05:27:25;;;;;;;7.93;4.33;;;;;;;24.84;63.88;99108.91;4829404;29;20192;-91
2022/06/18 05:29:51;;;;;;;15.57;5.90;;;;;;;24.76;64.34;99107.06;4845631;29;20579;-91
2022/06/18 05:32:16;;;;;;;10.73;5.50;;;;;;;24.91;63.99;99104.53;4845509;29;20210;-90
2022/06/18 05:34:42;;;;;;;10.20;4.90;;;;;;;25.00;63.73;99109.69;4845776;29;20257;-90
2022/06/18 05:37:17;;;;;;;8.30;4.47;;;;;;;25.00;63.72;99111.53;4845795;29;20539;-91
2022/06/18 05:39:42;;;;;;;10.30;5.23;;;;;;;25.17;63.27;99105.13;4845363;29;20593;-91
2022/06/18 05:42:08;;;;;;;8.37;4.60;;;;;;;25.27;62.69;99115.63;4845271;29;20181;-90
2022/06/18 05:44:34;;;;;;;9.03;4.80;;;;;;;25.18;62.63;99111.31;4829073;29;20679;-90
2022/06/18 05:47:00;;;;;;;6.13;3.60;;;;;;;25.13;62.65;99111.81;4845554;29;20246;-91
2022/06/18 05:49:26;;;;;;;6.80;3.50;;;;;;;25.25;62.35;99112.28;4845631;29;20181;-92
2022/06/18 05:51:51;;;;;;;5.23;3.20;;;;;;;25.33;62.37;99104.22;4829243;29;20193;-93
2022/06/18 05:54:17;;;;;;;8.03;3.47;;;;;;;25.41;62.31;99112.22;4845722;29;20265;-90
2022/06/18 05:56:42;;;;;;;8.00;4.27;;;;;;;25.51;62.23;99115.56;4828920;29;20196;-91
2022/06/18 05:59:11;;;;;;;6.73;3.53;;;;;;;25.59;61.84;99110.16;4845488;29;20195;-92
2022/06/18 06:01:36;;;;;;;6.43;4.10;;;;;;;25.49;61.21;99115.75;4845240;29;20636;-91
2022/06/18 06:04:02;;;;;;;5.73;3.70;;;;;;;25.48;62.03;99113.22;4845192;29;20201;-90
2022/06/18 06:06:28;;;;;;;7.10;3.77;;;;;;;25.57;62.00;99123.75;4845025;29;20200;-91
2022/06/18 06:08:53;;;;;;;6.73;3.60;;;;;;;25.69;62.18;99129.53;4828756;29;20189;-92
2022/06/18 06:11:32;;;;;;;12.47;6.73;;;;;;;25.75;60.80;99130.69;4828825;29;20263;-92
2022/06/18 06:13:59;;;;;;;10.10;4.87;;;;;;;25.84;60.76;99130.44;4845015;29;20203;-91
2022/06/18 06:16:26;;;;;;;9.97;4.77;;;;;;;25.92;60.49;99129.56;4828944;29;20514;-90
2022/06/18 06:18:52;;;;;;;8.50;4.00;;;;;;;25.93;59.88;99123.19;4844936;29;20711;-91
2022/06/18 06:21:18;;;;;;;6.17;4.10;;;;;;;25.99;59.93;99139.44;4844719;29;20199;-92
2022/06/18 06:23:43;;;;;;;5.13;3.30;;;;;;;26.03;60.09;99142.59;4828700;29;20205;-91
2022/06/18 06:26:36;;;;;;;7.97;4.00;;;;;;;26.04;59.67;99137.06;4828618;29;20196;-92
2022/06/18 06:29:02;;;;;;;6.03;3.90;;;;;;;26.04;59.92;99137.06;4842355;29;20212;-91
2022/06/18 06:31:28;;;;;;;6.53;3.80;;;;;;;25.99;60.11;99152.88;4829386;29;20193;-91
2022/06/18 06:33:54;;;;;;;5.60;4.03;;;;;;;25.98;59.86;99143.13;4845272;29;20189;-91
2022/06/18 06:36:20;;;;;;;6.47;3.70;;;;;;;25.90;60.42;99151.25;4844872;29;20181;-92
2022/06/18 06:38:45;;;;;;;7.83;4.60;;;;;;;25.88;60.93;99147.06;4828325;29;20186;-92
2022/06/18 06:41:19;;;;;;;7.10;4.57;;;;;;;25.87;61.37;99151.59;4828220;29;20632;-91
2022/06/18 06:43:45;;;;;;;6.80;4.30;;;;;;;25.88;61.74;99147.91;4828386;29;20558;-91
2022/06/18 06:46:12;;;;;;;9.23;4.67;;;;;;;25.84;61.95;99148.44;4844333;29;20253;-91
2022/06/18 06:48:38;;;;;;;8.17;4.37;;;;;;;25.85;61.91;99150.94;4844259;29;20667;-91
2022/06/18 06:51:11;;;;;;;6.53;4.30;;;;;;;25.85;61.77;99159.00;4844239;29;20201;-91
2022/06/18 06:53:37;;;;;;;6.70;3.67;;;;;;;25.86;61.86;99151.78;4844192;29;20166;-92
2022/06/18 06:58:46;;;;;;;8.47;4.47;;;;;;;25.74;63.07;99153.16;4844501;29;20188;-91
2022/06/18 07:01:12;;;;;;;6.67;4.10;;;;;;;25.74;62.48;99158.53;4827968;29;20204;-90
2022/06/18 07:03:38;;;;;;;16.97;4.80;;;;;;;25.75;62.55;99158.38;4843880;29;20181;-91
2022/06/18 07:06:04;;;;;;;7.07;4.30;;;;;;;25.73;62.58;99160.41;4827784;29;20325;-91
2022/06/18 07:08:30;;;;;;;7.50;4.20;;;;;;;25.76;62.43;99149.28;4826928;29;20185;-91
2022/06/18 07:10:55;;;;;;;6.87;4.33;;;;;;;25.77;62.57;99166.25;4843824;29;20188;-90
2022/06/18 07:13:21;;;;;;;6.73;4.00;;;;;;;25.78;62.31;99160.72;4827676;29;20197;-89
2022/06/18 07:15:48;;;;;;;8.13;3.97;;;;;;;25.74;62.57;99163.91;4843657;29;20177;-91
2022/06/18 07:18:18;;;;;;;6.27;3.73;;;;;;;25.75;62.08;99161.06;4844020;29;20493;-90
2022/06/18 07:20:43;;;;;;;6.03;3.87;;;;;;;25.69;60.79;99163.59;4843693;29;20181;-92
2022/06/18 07:23:09;;;;;;;7.47;2.70;;;;;;;25.62;59.05;99168.84;4827638;29;20196;-91
2022/06/18 07:25:35;;;;;;;7.33;3.37;;;;;;;25.65;58.86;99168.50;4827406;29;20205;-91
2022/06/18 07:28:00;;;;;;;6.97;3.03;;;;;;;25.53;58.94;99175.25;4827514;29;20284;-91
2022/06/18 07:30:26;;;;;;;5.23;2.87;;;;;;;25.44;57.73;99176.28;4843724;29;20245;-90
2022/06/18 07:32:52;;;;;;;18.20;5.03;;;;;;;25.46;59.15;99174.28;4826290;29;20185;-91
2022/06/18 07:35:22;;;;;;;9.63;5.03;;;;;;;25.55;58.40;99178.63;4860197;29;20193;-91
2022/06/18 07:37:48;;;;;;;6.43;3.67;;;;;;;25.69;57.91;99180.56;4862025;29;20245;-90
2022/06/18 07:40:15;;;;;;;6.03;3.53;;;;;;;25.69;59.13;99177.88;4842350;29;20224;-91
2022/06/18 07:42:42;;;;;;;4.57;3.00;;;;;;;25.76;57.34;99181.53;4830860;29;20224;-92
2022/06/18 07:45:21;;;;;;;10.80;4.10;;;;;;;25.78;58.13;99182.22;4842825;29;20269;-91
2022/06/18 07:47:47;;;;;;;5.47;3.37;;;;;;;25.82;56.39;99180.81;4843232;29;20176;-92
2022/06/18 07:50:15;;;;;;;8.07;3.80;;;;;;;25.88;56.70;99180.13;4843018;29;20176;-91
2022/06/18 07:52:45;;;;;;;8.90;3.50;;;;;;;25.98;55.75;99188.78;4826773;29;20546;-92
2022/06/18 07:55:13;;;;;;;8.70;5.30;;;;;;;25.97;56.30;99191.66;4827180;29;20548;-91
2022/06/18 07:57:42;;;;;;;6.73;3.33;;;;;;;25.94;56.44;99195.53;4809062;29;20713;-92
2022/06/18 08:00:09;;;;;;;6.67;2.87;;;;;;;25.91;57.05;99190.53;4824852;29;20213;-91
2022/06/18 08:02:39;;;;;;;6.57;3.87;;;;;;;25.87;56.91;99193.72;4808330;29;20685;-91
2022/06/18 08:05:06;;;;;;;7.33;3.57;;;;;;;25.92;56.97;99196.72;4808150;29;20214;-91
2022/06/18 08:07:32;;;;;;;6.87;3.47;;;;;;;26.02;56.38;99202.72;4824927;29;20186;-91
2022/06/18 08:10:01;;;;;;;6.90;3.97;;;;;;;26.15;55.34;99203.81;4824662;29;20632;-92
2022/06/18 08:12:27;;;;;;;5.23;3.17;;;;;;;26.29;54.84;99201.38;4808471;29;20189;-92
2022/06/18 08:14:52;;;;;;;11.77;5.03;;;;;;;26.10;55.49;99205.38;4824387;29;20192;-91
2022/06/18 08:17:18;;;;;;;8.13;3.63;;;;;;;26.21;55.34;99204.97;4824821;29;20587;-91
2022/06/18 08:19:43;;;;;;;10.57;3.43;;;;;;;26.01;55.42;99204.56;4808244;29;20217;-92
2022/06/18 08:22:10;;;;;;;5.90;2.90;;;;;;;25.96;55.57;99198.88;4808391;29;20185;-90
2022/06/18 08:24:35;;;;;;;8.43;4.07;;;;;;;26.12;55.18;99204.19;4824310;29;20209;-91
2022/06/18 08:27:04;;;;;;;4.93;2.80;;;;;;;26.09;54.46;99215.28;4808014;29;20284;-93
2022/06/18 08:29:32;;;;;;;6.57;3.23;;;;;;;25.96;54.70;99220.38;4824381;29;20273;-92
2022/06/18 08:31:58;;;;;;;7.27;4.37;;;;;;;25.85;54.88;99215.41;4808225;29;20189;-91
2022/06/18 08:34:23;;;;;;;9.87;4.23;;;;;;;25.66;56.09;99218.50;4824038;29;20303;-92
2022/06/18 08:36:49;;;;;;;6.87;4.30;;;;;;;25.63;56.99;99208.09;4824564;29;20185;-92
2022/06/18 08:39:15;;;;;;;7.75;3.65;;;;;;;25.78;56.19;99205.53;4808538;29;20192;-92
2022/06/18 08:42:09;;;;;;;11.90;4.47;;;;;;;25.69;57.05;99210.09;4824569;29;20247;-89
2022/06/18 08:45:10;;;;;;;8.05;3.00;;;;;;;25.56;56.53;99207.13;4824634;29;20354;-91
2022/06/18 08:48:06;;;;;;;7.10;3.08;;;;;;;25.95;56.56;99199.88;4801829;29;20205;-91
2022/06/18 08:51:00;;;;;;;3.47;2.10;;;;;;;26.16;55.92;99200.13;4808805;29;20281;-93
2022/06/18 08:53:38;;;;;;;5.07;2.38;;;;;;;25.83;55.82;99203.16;4808302;29;20541;-92
2022/06/18 08:56:29;;;;;;;13.33;2.47;;;;;;;25.64;57.16;99209.78;4808463;29;20189;-93
2022/06/18 08:59:25;;;;;;;4.78;2.35;;;;;;;25.82;57.07;99206.84;4808348;29;20182;-91
2022/06/18 09:02:02;;;;;;;3.57;2.30;;;;;;;25.80;55.73;99208.88;4824341;29;20253;-90
2022/06/18 09:04:39;;;;;;;4.05;2.38;;;;;;;25.89;55.72;99197.91;4824717;29;20209;-91
2022/06/18 09:07:31;;;;;;;4.13;2.47;;;;;;;25.61;56.21;99204.75;4824246;29;20181;-91
2022/06/18 09:10:12;;;;;;;6.07;3.20;;;;;;;25.93;56.42;99204.59;4808116;29;20268;-91
2022/06/18 09:12:44;;;;;;;4.70;2.87;;;;;;;26.17;55.82;99201.81;4808075;29;20189;-92
2022/06/18 09:15:25;;;;;;;5.38;2.80;;;;;;;26.45;55.77;99187.81;4808163;29;20177;-91
2022/06/18 09:18:19;;;;;;;5.88;2.78;;;;;;;26.64;53.94;99187.34;4824375;29;20173;-93
2022/06/18 09:21:00;;;;;;;3.85;2.63;;;;;;;26.80;53.63;99190.75;4807709;29;20667;-93
2022/06/18 09:23:39;;;;;;;9.95;3.72;;;;;;;26.67;53.26;99195.88;4808013;29;20178;-92
2022/06/18 09:26:11;;;;;;;6.93;2.92;;;;;;;26.98;52.99;99194.94;4824014;29;20189;-93
2022/06/18 09:28:43;;;;;;;4.72;2.63;;;;;;;27.05;54.12;99198.56;4807992;29;20269;-91
2022/06/18 09:31:11;;;;;;;9.60;2.53;;;;;;;27.32;53.50;99197.94;4825140;29;20538;-90
2022/06/18 09:33:42;;;;;;;7.63;2.63;;;;;;;27.36;52.37;99188.47;4827110;29;20323;-90
2022/06/18 09:36:22;;;;;;;4.07;2.35;;;;;;;27.46;52.17;99186.38;4827305;29;20174;-90
2022/06/18 09:38:57;;;;;;;10.00;2.40;;;;;;;27.68;52.18;99182.72;4827395;29;20173;-90
2022/06/18 09:41:43;;;;;;;6.30;2.15;;;;;;;27.48;52.08;99184.34;4811134;29;20177;-92
2022/06/18 09:44:18;;;;;;;4.45;2.78;;;;;;;27.59;53.38;99189.25;4827594;29;20213;-91
2022/06/18 09:46:49;;;;;;;5.05;2.15;;;;;;;27.74;51.41;99173.06;4811022;29;20268;-90
2022/06/18 09:49:15;;;;;;;2.80;1.85;;;;;;;28.12;51.50;99179.13;4826925;29;20223;-90
2022/06/18 09:51:47;;;;;;;4.00;2.03;;;;;;;28.30;50.94;99180.34;4810925;29;20603;-90
2022/06/18 09:54:16;;;;;;;5.18;2.13;;;;;;;28.58;50.92;99175.84;4826816;29;20189;-90
2022/06/18 09:56:49;;;;;;;5.03;2.30;;;;;;;28.61;49.98;99178.19;4826950;29;20190;-90
2022/06/18 09:59:21;;;;;;;4.07;2.40;;;;;;;28.53;48.65;99178.28;4827040;29;20174;-87
2022/06/18 10:01:53;;;;;;;7.50;3.15;;;;;;;28.75;49.45;99183.69;4826542;29;20201;-90
2022/06/18 10:07:14;;;;;;;6.00;2.72;;;;;;;28.91;48.99;99196.88;4826964;29;20188;-90
2022/06/18 10:09:45;;;;;;;6.65;2.63;;;;;;;29.07;47.42;99201.97;4810588;29;20774;-89
2022/06/18 10:12:19;;;;;;;5.72;2.30;;;;;;;29.17;47.89;99213.25;4826992;29;20214;-90
2022/06/18 10:14:46;;;;;;;4.47;2.22;;;;;;;29.02;47.94;99212.53;4826966;29;20249;-89
2022/06/18 10:17:12;;;;;;;4.05;2.22;;;;;;;29.12;46.92;99207.63;4826436;29;20193;-89
2022/06/18 10:20:08;;;;;;;2.33;1.58;;;;;;;28.69;47.06;99217.69;4826616;29;20632;-91
2022/06/18 10:23:01;;;;;;;6.05;2.00;;;;;;;28.53;47.77;99221.44;4810552;29;20564;-89
2022/06/18 10:25:42;;;;;;;3.60;2.13;;;;;;;28.40;48.45;99215.94;4826725;29;20212;-89
2022/06/18 10:28:07;;;;;;;2.95;2.03;;;;;;;28.66;47.98;99219.94;4826388;29;20214;-89
2022/06/18 10:31:00;;;;;;;18.35;3.80;;;;;;;28.94;47.51;99221.63;4826122;29;20269;-91
2022/06/18 10:33:53;;;;;;;3.30;1.92;;;;;;;29.19;46.98;99216.63;4826540;29;20166;-92
2022/06/18 10:36:25;;;;;;;3.17;1.52;;;;;;;29.27;46.21;99208.41;4810498;29;20542;-92
2022/06/18 10:39:17;;;;;;;2.38;1.30;;;;;;;29.18;44.80;99204.16;4810142;29;20216;-91
2022/06/18 10:41:53;;;;;;;3.13;1.77;;;;;;;29.18;46.18;99209.53;4802686;29;20206;-89
2022/06/18 10:44:45;;;;;;;2.60;1.52;;;;;;;29.59;45.94;99217.72;4825585;29;20246;-92
2022/06/18 10:47:17;;;;;;;4.53;1.90;;;;;;;29.06;46.01;99224.63;4809717;29;20174;-92
2022/06/18 10:49:46;;;;;;;8.75;3.03;;;;;;;29.25;45.21;99215.84;4826186;29;20220;-93
2022/06/18 10:52:22;;;;;;;3.00;1.92;;;;;;;28.42;45.13;99219.25;4825767;29;20209;-89
2022/06/18 10:54:48;;;;;;;4.50;2.00;;;;;;;28.27;46.48;99231.97;4825689;29;20246;-89
2022/06/18 10:57:26;;;;;;;4.10;2.00;;;;;;;28.87;45.61;99223.44;4826232;29;20181;-88
2022/06/18 10:59:54;;;;;;;3.58;2.20;;;;;;;28.45;46.13;99218.03;4825549;29;20257;-92
2022/06/18 11:02:27;;;;;;;6.78;1.70;;;;;;;28.85;46.87;99214.69;4826423;29;20231;-92
2022/06/18 11:04:58;;;;;;;3.95;1.60;;;;;;;29.04;44.42;99211.31;4809482;29;20224;-89
2022/06/18 11:07:26;;;;;;;3.28;1.45;;;;;;;28.00;46.96;99211.09;4825496;29;20196;-89
2022/06/18 11:09:59;;;;;;;3.15;1.77;;;;;;;28.32;46.53;99207.97;4825760;29;20190;-88
2022/06/18 11:12:37;;;;;;;3.13;1.42;;;;;;;28.38;46.22;99206.38;4825805;29;20193;-88
2022/06/18 11:15:07;;;;;;;2.72;1.58;;;;;;;28.92;45.38;99203.97;4825725;29;20170;-91
2022/06/18 11:17:43;;;;;;;2.78;1.58;;;;;;;28.23;46.54;99211.78;4825775;29;20170;-88
2022/06/18 11:20:14;;;;;;;2.72;1.50;;;;;;;28.37;47.19;99210.91;4825708;29;20174;-88
2022/06/18 11:22:41;;;;;;;3.30;1.50;;;;;;;28.61;46.42;99207.88;4825455;29;20288;-88
2022/06/18 11:25:30;;;;;;;2.40;1.30;;;;;;;28.96;45.36;99202.53;4825788;29;20201;-90
2022/06/18 11:27:59;;;;;;;4.93;1.48;;;;;;;29.03;46.38;99206.97;4825375;29;20206;-90
2022/06/18 11:30:30;;;;;;;3.55;1.50;;;;;;;28.99;45.79;99212.94;4809165;29;20637;-90
2022/06/18 11:32:56;;;;;;;12.38;1.85;;;;;;;29.18;45.05;99212.25;4825614;29;20178;-91
2022/06/18 11:35:30;;;;;;;7.07;1.85;;;;;;;29.30;43.77;99216.09;4809140;29;20262;-90
2022/06/18 11:38:02;;;;;;;16.90;3.78;;;;;;;29.55;43.63;99211.88;4825647;29;20178;-91
2022/06/18 11:40:29;;;;;;;4.45;2.08;;;;;;;29.32;43.97;99213.19;4823095;29;20193;-91
2022/06/18 11:43:16;;;;;;;24.63;10.63;;;;;;;29.49;43.91;99217.25;4824715;29;20209;-90
2022/06/18 11:45:50;;;;;;;7.78;3.13;;;;;;;29.43;43.77;99220.75;4825102;29;20215;-90
2022/06/18 11:48:54;;;;;;;4.45;2.20;;;;;;;28.76;44.98;99212.31;4825194;29;20181;-90
2022/06/18 11:51:36;;;;;;;2.33;1.20;;;;;;;29.35;45.37;99212.81;4821800;29;20212;-89
2022/06/18 11:54:14;;;;;;;4.38;1.77;;;;;;;29.19;44.68;99217.44;4824435;29;20173;-90
2022/06/18 11:57:18;;;;;;;3.08;1.60;;;;;;;29.41;44.51;99212.00;4808778;29;20269;-91
2022/06/18 11:59:58;;;;;;;3.00;1.40;;;;;;;29.20;44.85;99218.28;4808615;29;20190;-90